sensor_id;sensor_type;location;lat;lon;timestamp;pressure;altitude;pressure_sealevel;temperature;humidity
50394;BME280;36308;46.312;25.288;2022-08-19T00:00:06;95882.69;;;19.38;67.96
50394;BME280;36308;46.312;25.288;2022-08-19T00:02:33;95872.41;;;19.35;67.91
50394;BME280;36308;46.312;25.288;2022-08-19T00:04:58;95858.78;;;19.27;68.05
50394;BME280;36308;46.312;25.288;2022-08-19T00:07:24;95873.97;;;19.28;68.01
50394;BME280;36308;46.312;25.288;2022-08-19T00:09:50;95885.22;;;19.26;68.08
50394;BME280;36308;46.312;25.288;2022-08-19T00:12:15;95882.00;;;19.24;68.33
50394;BME280;36308;46.312;25.288;2022-08-19T00:14:41;95884.56;;;19.21;68.32
50394;BME280;36308;46.312;25.288;2022-08-19T00:17:07;95883.28;;;19.18;68.18
50394;BME280;36308;46.312;25.288;2022-08-19T00:19:34;95865.28;;;19.00;68.29
50394;BME280;36308;46.312;25.288;2022-08-19T00:21:59;95889.03;;;19.08;68.09
50394;BME280;36308;46.312;25.288;2022-08-19T00:24:25;95888.03;;;19.04;68.26
50394;BME280;36308;46.312;25.288;2022-08-19T00:26:54;95881.31;;;19.01;68.19
50394;BME280;36308;46.312;25.288;2022-08-19T00:29:20;95883.84;;;18.97;68.24
50394;BME280;36308;46.312;25.288;2022-08-19T00:31:47;95887.84;;;18.91;68.24
50394;BME280;36308;46.312;25.288;2022-08-19T00:34:13;95889.75;;;18.91;68.20
50394;BME280;36308;46.312;25.288;2022-08-19T00:36:41;95866.25;;;18.72;68.33
50394;BME280;36308;46.312;25.288;2022-08-19T00:39:07;95881.38;;;18.78;68.49
50394;BME280;36308;46.312;25.288;2022-08-19T00:41:33;95889.25;;;18.80;68.38
50394;BME280;36308;46.312;25.288;2022-08-19T00:44:17;95880.66;;;18.73;68.43
50394;BME280;36308;46.312;25.288;2022-08-19T00:46:46;95867.50;;;18.66;68.60
50394;BME280;36308;46.312;25.288;2022-08-19T00:49:41;95872.16;;;18.66;68.70
50394;BME280;36308;46.312;25.288;2022-08-19T00:52:12;95857.84;;;18.51;68.58
50394;BME280;36308;46.312;25.288;2022-08-19T00:54:41;95889.09;;;18.63;68.76
50394;BME280;36308;46.312;25.288;2022-08-19T00:57:10;95884.31;;;18.60;68.65
50394;BME280;36308;46.312;25.288;2022-08-19T00:59:41;95883.31;;;18.55;68.74
50394;BME280;36308;46.312;25.288;2022-08-19T01:02:08;95873.03;;;18.52;68.95
50394;BME280;36308;46.312;25.288;2022-08-19T01:04:33;95882.94;;;18.48;69.01
50394;BME280;36308;46.312;25.288;2022-08-19T01:06:59;95890.63;;;18.46;69.05
50394;BME280;36308;46.312;25.288;2022-08-19T01:09:26;95884.81;;;18.39;69.03
50394;BME280;36308;46.312;25.288;2022-08-19T01:11:52;95891.88;;;18.40;69.03
50394;BME280;36308;46.312;25.288;2022-08-19T01:14:18;95885.44;;;18.36;69.06
50394;BME280;36308;46.312;25.288;2022-08-19T01:16:45;95873.81;;;18.22;69.04
50394;BME280;36308;46.312;25.288;2022-08-19T01:19:29;95894.34;;;18.28;69.17
50394;BME280;36308;46.312;25.288;2022-08-19T01:22:02;95907.47;;;18.26;69.28
50394;BME280;36308;46.312;25.288;2022-08-19T01:24:28;95907.78;;;18.24;69.20
50394;BME280;36308;46.312;25.288;2022-08-19T01:26:56;95910.31;;;18.21;69.34
50394;BME280;36308;46.312;25.288;2022-08-19T01:29:21;95905.47;;;18.17;69.38
50394;BME280;36308;46.312;25.288;2022-08-19T01:31:47;95906.59;;;18.16;69.31
50394;BME280;36308;46.312;25.288;2022-08-19T01:34:14;95887.41;;;17.99;69.44
50394;BME280;36308;46.312;25.288;2022-08-19T01:36:42;95916.00;;;18.10;69.58
50394;BME280;36308;46.312;25.288;2022-08-19T01:39:13;95892.50;;;17.92;69.85
50394;BME280;36308;46.312;25.288;2022-08-19T01:41:39;95916.94;;;18.06;69.69
50394;BME280;36308;46.312;25.288;2022-08-19T01:44:07;95923.47;;;18.05;69.98
50394;BME280;36308;46.312;25.288;2022-08-19T01:46:33;95920.25;;;18.03;69.77
50394;BME280;36308;46.312;25.288;2022-08-19T01:48:59;95928.72;;;18.01;69.92
50394;BME280;36308;46.312;25.288;2022-08-19T01:51:25;95923.72;;;17.94;70.03
50394;BME280;36308;46.312;25.288;2022-08-19T01:53:51;95927.84;;;17.92;70.08
50394;BME280;36308;46.312;25.288;2022-08-19T01:56:17;95934.59;;;17.94;70.09
50394;BME280;36308;46.312;25.288;2022-08-19T01:58:56;95928.34;;;17.94;70.20
50394;BME280;36308;46.312;25.288;2022-08-19T02:01:23;95935.22;;;17.91;69.83
50394;BME280;36308;46.312;25.288;2022-08-19T02:03:48;95916.97;;;17.78;70.23
50394;BME280;36308;46.312;25.288;2022-08-19T02:06:14;95939.97;;;17.86;69.97
50394;BME280;36308;46.312;25.288;2022-08-19T02:08:42;95930.78;;;17.82;70.01
50394;BME280;36308;46.312;25.288;2022-08-19T02:11:27;95934.28;;;17.82;70.13
50394;BME280;36308;46.312;25.288;2022-08-19T02:13:57;95946.09;;;17.77;70.09
50394;BME280;36308;46.312;25.288;2022-08-19T02:16:23;95940.66;;;17.77;70.07
50394;BME280;36308;46.312;25.288;2022-08-19T02:18:49;95942.06;;;17.75;69.81
50394;BME280;36308;46.312;25.288;2022-08-19T02:21:17;95942.66;;;17.72;69.90
50394;BME280;36308;46.312;25.288;2022-08-19T02:23:43;95940.56;;;17.69;70.02
50394;BME280;36308;46.312;25.288;2022-08-19T02:26:09;95940.06;;;17.67;70.23
50394;BME280;36308;46.312;25.288;2022-08-19T02:28:35;95932.84;;;17.62;70.23
50394;BME280;36308;46.312;25.288;2022-08-19T02:31:02;95945.31;;;17.63;70.34
50394;BME280;36308;46.312;25.288;2022-08-19T02:33:27;95946.53;;;17.57;70.11
50394;BME280;36308;46.312;25.288;2022-08-19T02:35:53;95954.69;;;17.57;70.14
50394;BME280;36308;46.312;25.288;2022-08-19T02:38:19;95936.50;;;17.44;70.30
50394;BME280;36308;46.312;25.288;2022-08-19T02:40:57;95958.81;;;17.54;70.13
50394;BME280;36308;46.312;25.288;2022-08-19T02:43:23;95934.69;;;17.39;70.12
50394;BME280;36308;46.312;25.288;2022-08-19T02:45:49;95953.19;;;17.51;70.32
50394;BME280;36308;46.312;25.288;2022-08-19T02:48:17;95939.50;;;17.42;70.43
50394;BME280;36308;46.312;25.288;2022-08-19T02:50:43;95959.03;;;17.44;70.23
50394;BME280;36308;46.312;25.288;2022-08-19T02:53:09;95963.03;;;17.47;70.37
50394;BME280;36308;46.312;25.288;2022-08-19T02:55:35;95948.16;;;17.30;70.28
50394;BME280;36308;46.312;25.288;2022-08-19T02:58:00;95947.84;;;17.32;70.34
50394;BME280;36308;46.312;25.288;2022-08-19T03:00:26;95967.47;;;17.43;70.44
50394;BME280;36308;46.312;25.288;2022-08-19T03:02:52;95971.91;;;17.38;70.35
50394;BME280;36308;46.312;25.288;2022-08-19T03:05:18;95952.59;;;17.26;70.52
50394;BME280;36308;46.312;25.288;2022-08-19T03:07:43;95953.19;;;17.23;70.27
50394;BME280;36308;46.312;25.288;2022-08-19T03:10:10;95977.16;;;17.35;70.57
50394;BME280;36308;46.312;25.288;2022-08-19T03:12:37;95979.75;;;17.26;70.34
50394;BME280;36308;46.312;25.288;2022-08-19T03:15:05;95982.19;;;17.28;70.40
50394;BME280;36308;46.312;25.288;2022-08-19T03:17:32;95967.50;;;17.15;70.30
50394;BME280;36308;46.312;25.288;2022-08-19T03:19:58;95987.41;;;17.24;70.43
50394;BME280;36308;46.312;25.288;2022-08-19T03:22:23;95984.19;;;17.22;70.37
50394;BME280;36308;46.312;25.288;2022-08-19T03:24:50;95986.91;;;17.22;70.98
50394;BME280;36308;46.312;25.288;2022-08-19T03:27:16;95980.97;;;17.20;70.83
50394;BME280;36308;46.312;25.288;2022-08-19T03:29:43;95981.56;;;17.17;70.78
50394;BME280;36308;46.312;25.288;2022-08-19T03:32:09;95987.00;;;17.17;71.25
50394;BME280;36308;46.312;25.288;2022-08-19T03:34:36;95980.78;;;17.16;70.89
50394;BME280;36308;46.312;25.288;2022-08-19T03:37:06;95982.66;;;17.16;71.04
50394;BME280;36308;46.312;25.288;2022-08-19T03:39:32;95980.56;;;17.13;70.92
50394;BME280;36308;46.312;25.288;2022-08-19T03:41:57;95972.41;;;16.99;70.88
50394;BME280;36308;46.312;25.288;2022-08-19T03:44:26;95967.88;;;16.94;71.10
50394;BME280;36308;46.312;25.288;2022-08-19T03:46:54;95975.94;;;17.00;71.16
50394;BME280;36308;46.312;25.288;2022-08-19T03:49:21;95999.06;;;17.11;71.13
50394;BME280;36308;46.312;25.288;2022-08-19T03:51:49;95997.44;;;17.10;70.85
50394;BME280;36308;46.312;25.288;2022-08-19T03:54:17;95998.06;;;17.07;71.32
50394;BME280;36308;46.312;25.288;2022-08-19T03:56:45;96011.34;;;17.08;71.25
50394;BME280;36308;46.312;25.288;2022-08-19T03:59:14;96003.50;;;17.07;70.96
50394;BME280;36308;46.312;25.288;2022-08-19T04:01:40;95990.91;;;16.97;70.84
50394;BME280;36308;46.312;25.288;2022-08-19T04:04:06;95994.94;;;17.00;71.04
50394;BME280;36308;46.312;25.288;2022-08-19T04:06:34;96000.88;;;17.02;71.49
50394;BME280;36308;46.312;25.288;2022-08-19T04:09:03;96002.25;;;16.99;71.39
50394;BME280;36308;46.312;25.288;2022-08-19T04:11:33;96015.78;;;17.04;71.60
50394;BME280;36308;46.312;25.288;2022-08-19T04:13:59;95998.34;;;16.91;71.59
50394;BME280;36308;46.312;25.288;2022-08-19T04:16:26;95995.81;;;16.95;71.33
50394;BME280;36308;46.312;25.288;2022-08-19T04:18:56;96015.56;;;17.01;71.63
50394;BME280;36308;46.312;25.288;2022-08-19T04:21:24;96003.69;;;16.96;71.67
50394;BME280;36308;46.312;25.288;2022-08-19T04:23:50;96011.13;;;17.05;72.02
50394;BME280;36308;46.312;25.288;2022-08-19T04:26:18;96019.78;;;17.07;72.19
50394;BME280;36308;46.312;25.288;2022-08-19T04:28:45;96015.97;;;17.08;72.35
50394;BME280;36308;46.312;25.288;2022-08-19T04:31:16;96008.13;;;17.06;72.24
50394;BME280;36308;46.312;25.288;2022-08-19T04:33:42;96003.72;;;17.10;72.52
50394;BME280;36308;46.312;25.288;2022-08-19T04:36:08;95997.94;;;17.12;72.46
50394;BME280;36308;46.312;25.288;2022-08-19T04:38:40;96009.84;;;17.16;72.49
50394;BME280;36308;46.312;25.288;2022-08-19T04:41:05;95986.59;;;17.10;72.59
50394;BME280;36308;46.312;25.288;2022-08-19T04:43:49;95993.53;;;17.16;72.58
50394;BME280;36308;46.312;25.288;2022-08-19T04:46:15;95973.00;;;17.10;72.60
50394;BME280;36308;46.312;25.288;2022-08-19T04:48:42;95984.00;;;17.19;72.77
50394;BME280;36308;46.312;25.288;2022-08-19T04:51:10;95989.81;;;17.26;72.59
50394;BME280;36308;46.312;25.288;2022-08-19T04:53:39;95994.66;;;17.29;72.76
50394;BME280;36308;46.312;25.288;2022-08-19T04:56:08;95991.63;;;17.30;72.73
50394;BME280;36308;46.312;25.288;2022-08-19T04:58:34;95998.06;;;17.34;72.81
50394;BME280;36308;46.312;25.288;2022-08-19T05:01:00;95986.63;;;17.37;72.86
50394;BME280;36308;46.312;25.288;2022-08-19T05:03:25;95966.66;;;17.28;72.67
50394;BME280;36308;46.312;25.288;2022-08-19T05:05:51;95987.84;;;17.45;72.62
50394;BME280;36308;46.312;25.288;2022-08-19T05:08:20;95991.06;;;17.47;72.73
50394;BME280;36308;46.312;25.288;2022-08-19T05:10:48;95990.13;;;17.52;72.74
50394;BME280;36308;46.312;25.288;2022-08-19T05:13:16;95992.22;;;17.55;73.03
50394;BME280;36308;46.312;25.288;2022-08-19T05:15:43;95992.44;;;17.58;72.84
50394;BME280;36308;46.312;25.288;2022-08-19T05:18:09;95987.22;;;17.62;72.69
50394;BME280;36308;46.312;25.288;2022-08-19T05:20:53;95986.00;;;17.68;72.40
50394;BME280;36308;46.312;25.288;2022-08-19T05:23:37;95973.28;;;17.64;71.80
50394;BME280;36308;46.312;25.288;2022-08-19T05:26:02;95984.44;;;17.76;72.07
50394;BME280;36308;46.312;25.288;2022-08-19T05:28:28;95974.69;;;17.75;72.21
50394;BME280;36308;46.312;25.288;2022-08-19T05:30:54;95975.31;;;17.86;72.20
50394;BME280;36308;46.312;25.288;2022-08-19T05:33:21;95974.09;;;17.92;72.22
50394;BME280;36308;46.312;25.288;2022-08-19T05:35:48;95947.31;;;17.85;72.25
50394;BME280;36308;46.312;25.288;2022-08-19T05:38:15;95957.78;;;17.92;72.43
50394;BME280;36308;46.312;25.288;2022-08-19T05:40:41;95974.22;;;18.09;71.95
50394;BME280;36308;46.312;25.288;2022-08-19T05:43:11;95972.00;;;18.11;72.14
50394;BME280;36308;46.312;25.288;2022-08-19T05:45:41;95968.38;;;18.16;72.07
50394;BME280;36308;46.312;25.288;2022-08-19T05:48:08;95978.41;;;18.29;71.98
50394;BME280;36308;46.312;25.288;2022-08-19T05:50:37;95983.41;;;18.36;71.67
50394;BME280;36308;46.312;25.288;2022-08-19T05:53:03;95956.13;;;18.27;72.01
50394;BME280;36308;46.312;25.288;2022-08-19T05:55:28;95963.25;;;18.37;71.77
50394;BME280;36308;46.312;25.288;2022-08-19T05:57:54;95970.25;;;18.52;71.77
50394;BME280;36308;46.312;25.288;2022-08-19T06:00:19;95981.25;;;18.69;71.52
50394;BME280;36308;46.312;25.288;2022-08-19T06:02:45;95976.25;;;18.63;71.43
50394;BME280;36308;46.312;25.288;2022-08-19T06:05:10;95981.94;;;18.75;70.93
50394;BME280;36308;46.312;25.288;2022-08-19T06:07:38;95989.22;;;18.88;70.83
50394;BME280;36308;46.312;25.288;2022-08-19T06:10:05;95986.59;;;18.97;70.54
50394;BME280;36308;46.312;25.288;2022-08-19T06:12:31;95990.94;;;19.07;70.24
50394;BME280;36308;46.312;25.288;2022-08-19T06:15:00;95985.84;;;19.14;70.09
50394;BME280;36308;46.312;25.288;2022-08-19T06:17:26;95973.53;;;19.16;70.25
50394;BME280;36308;46.312;25.288;2022-08-19T06:19:52;95988.16;;;19.29;70.05
50394;BME280;36308;46.312;25.288;2022-08-19T06:22:17;95990.59;;;19.39;70.00
50394;BME280;36308;46.312;25.288;2022-08-19T06:24:43;95989.84;;;19.48;69.67
50394;BME280;36308;46.312;25.288;2022-08-19T06:27:09;95959.34;;;19.46;69.48
50394;BME280;36308;46.312;25.288;2022-08-19T06:29:35;95978.34;;;19.68;69.36
50394;BME280;36308;46.312;25.288;2022-08-19T06:32:02;95973.41;;;19.70;69.46
50394;BME280;36308;46.312;25.288;2022-08-19T06:34:30;95963.16;;;19.76;69.33
50394;BME280;36308;46.312;25.288;2022-08-19T06:36:57;95985.66;;;19.99;68.91
50394;BME280;36308;46.312;25.288;2022-08-19T06:39:28;95988.88;;;20.10;68.99
50394;BME280;36308;46.312;25.288;2022-08-19T06:41:56;95986.63;;;20.21;68.68
50394;BME280;36308;46.312;25.288;2022-08-19T06:44:24;95998.84;;;20.32;68.32
50394;BME280;36308;46.312;25.288;2022-08-19T06:46:53;95993.06;;;20.42;68.39
50394;BME280;36308;46.312;25.288;2022-08-19T06:49:19;95991.44;;;20.50;67.88
50394;BME280;36308;46.312;25.288;2022-08-19T06:51:47;95985.47;;;20.56;67.70
50394;BME280;36308;46.312;25.288;2022-08-19T06:54:13;95989.84;;;20.75;67.35
50394;BME280;36308;46.312;25.288;2022-08-19T06:56:40;95965.25;;;20.75;66.60
50394;BME280;36308;46.312;25.288;2022-08-19T06:59:08;95986.41;;;20.95;66.42
50394;BME280;36308;46.312;25.288;2022-08-19T07:01:39;95968.72;;;21.02;66.23
50394;BME280;36308;46.312;25.288;2022-08-19T07:04:08;95965.78;;;21.15;65.82
50394;BME280;36308;46.312;25.288;2022-08-19T07:06:35;95961.91;;;21.25;65.71
50394;BME280;36308;46.312;25.288;2022-08-19T07:09:03;95977.44;;;21.42;65.74
50394;BME280;36308;46.312;25.288;2022-08-19T07:11:30;95976.72;;;21.54;65.57
50394;BME280;36308;46.312;25.288;2022-08-19T07:13:57;95951.16;;;21.58;65.20
50394;BME280;36308;46.312;25.288;2022-08-19T07:16:23;95952.03;;;21.71;65.12
50394;BME280;36308;46.312;25.288;2022-08-19T07:18:51;95935.41;;;21.76;64.62
50394;BME280;36308;46.312;25.288;2022-08-19T07:21:23;95957.00;;;21.99;64.35
50394;BME280;36308;46.312;25.288;2022-08-19T07:23:50;95952.75;;;22.10;63.76
50394;BME280;36308;46.312;25.288;2022-08-19T07:26:25;95962.91;;;22.31;63.34
50394;BME280;36308;46.312;25.288;2022-08-19T07:28:52;95963.41;;;22.45;63.29
50394;BME280;36308;46.312;25.288;2022-08-19T07:31:22;95962.69;;;22.57;62.87
50394;BME280;36308;46.312;25.288;2022-08-19T07:33:50;95963.53;;;22.70;62.71
50394;BME280;36308;46.312;25.288;2022-08-19T07:36:19;95960.81;;;22.82;62.43
50394;BME280;36308;46.312;25.288;2022-08-19T07:38:47;95946.66;;;22.80;62.22
50394;BME280;36308;46.312;25.288;2022-08-19T07:41:15;95960.00;;;23.03;62.30
50394;BME280;36308;46.312;25.288;2022-08-19T07:43:41;95951.44;;;23.16;61.73
50394;BME280;36308;46.312;25.288;2022-08-19T07:46:09;95966.31;;;23.28;61.46
50394;BME280;36308;46.312;25.288;2022-08-19T07:48:36;95961.16;;;23.38;61.16
50394;BME280;36308;46.312;25.288;2022-08-19T07:51:04;95969.41;;;23.51;60.76
50394;BME280;36308;46.312;25.288;2022-08-19T07:53:32;95967.47;;;23.64;59.76
50394;BME280;36308;46.312;25.288;2022-08-19T07:56:00;95963.13;;;23.75;59.28
50394;BME280;36308;46.312;25.288;2022-08-19T07:58:34;95957.09;;;23.82;59.25
50394;BME280;36308;46.312;25.288;2022-08-19T08:01:00;95956.84;;;23.99;58.58
50394;BME280;36308;46.312;25.288;2022-08-19T08:03:27;95954.03;;;24.11;58.30
50394;BME280;36308;46.312;25.288;2022-08-19T08:06:13;95949.78;;;24.26;58.16
50394;BME280;36308;46.312;25.288;2022-08-19T08:08:58;95958.91;;;24.43;58.06
50394;BME280;36308;46.312;25.288;2022-08-19T08:11:46;95947.53;;;24.56;58.09
50394;BME280;36308;46.312;25.288;2022-08-19T08:14:21;95953.41;;;24.71;57.54
50394;BME280;36308;46.312;25.288;2022-08-19T08:16:48;95955.41;;;24.86;56.49
50394;BME280;36308;46.312;25.288;2022-08-19T08:19:15;95954.97;;;25.00;55.60
50394;BME280;36308;46.312;25.288;2022-08-19T08:21:41;95948.16;;;25.10;55.55
50394;BME280;36308;46.312;25.288;2022-08-19T08:24:07;95948.56;;;25.24;55.24
50394;BME280;36308;46.312;25.288;2022-08-19T08:26:33;95936.94;;;25.31;55.12
50394;BME280;36308;46.312;25.288;2022-08-19T08:28:59;95925.13;;;25.30;54.66
50394;BME280;36308;46.312;25.288;2022-08-19T08:31:24;95941.44;;;25.55;54.36
50394;BME280;36308;46.312;25.288;2022-08-19T08:34:14;95937.88;;;25.70;54.55
50394;BME280;36308;46.312;25.288;2022-08-19T08:36:44;95937.75;;;25.83;54.46
50394;BME280;36308;46.312;25.288;2022-08-19T08:39:15;95929.59;;;25.86;54.34
50394;BME280;36308;46.312;25.288;2022-08-19T08:45:09;95935.09;;;26.21;53.54
50394;BME280;36308;46.312;25.288;2022-08-19T08:47:44;95929.38;;;26.30;53.71
50394;BME280;36308;46.312;25.288;2022-08-19T08:50:25;95934.81;;;26.46;53.11
50394;BME280;36308;46.312;25.288;2022-08-19T08:52:56;95933.09;;;26.57;52.62
50394;BME280;36308;46.312;25.288;2022-08-19T08:55:29;95915.28;;;26.55;52.49
50394;BME280;36308;46.312;25.288;2022-08-19T08:58:05;95922.78;;;26.74;52.68
50394;BME280;36308;46.312;25.288;2022-08-19T09:00:33;95932.47;;;26.87;52.61
50394;BME280;36308;46.312;25.288;2022-08-19T09:03:01;95928.03;;;27.02;51.87
50394;BME280;36308;46.312;25.288;2022-08-19T09:05:55;95925.75;;;27.08;50.98
50394;BME280;36308;46.312;25.288;2022-08-19T09:11:34;95928.66;;;27.38;49.95
50394;BME280;36308;46.312;25.288;2022-08-19T09:16:54;95928.31;;;27.66;48.96
50394;BME280;36308;46.312;25.288;2022-08-19T09:19:19;95941.28;;;27.89;49.26
50394;BME280;36308;46.312;25.288;2022-08-19T09:21:45;95945.47;;;28.06;49.27
50394;BME280;36308;46.312;25.288;2022-08-19T09:24:11;95940.97;;;28.20;49.03
50394;BME280;36308;46.312;25.288;2022-08-19T09:26:37;95940.41;;;28.38;48.10
50394;BME280;36308;46.312;25.288;2022-08-19T09:29:03;95931.00;;;28.46;47.02
50394;BME280;36308;46.312;25.288;2022-08-19T09:31:31;95942.03;;;28.73;46.07
50394;BME280;36308;46.312;25.288;2022-08-19T09:33:58;95935.47;;;28.88;46.07
50394;BME280;36308;46.312;25.288;2022-08-19T09:36:26;95928.09;;;28.99;46.14
50394;BME280;36308;46.312;25.288;2022-08-19T09:38:54;95941.41;;;29.24;44.80
50394;BME280;36308;46.312;25.288;2022-08-19T09:41:23;95929.63;;;29.38;44.24
50394;BME280;36308;46.312;25.288;2022-08-19T09:43:52;95933.75;;;29.58;44.30
50394;BME280;36308;46.312;25.288;2022-08-19T09:46:19;95890.19;;;29.52;43.33
50394;BME280;36308;46.312;25.288;2022-08-19T09:48:47;95923.75;;;29.95;43.17
50394;BME280;36308;46.312;25.288;2022-08-19T09:51:16;95926.25;;;30.14;42.08
50394;BME280;36308;46.312;25.288;2022-08-19T09:53:46;95932.72;;;30.33;40.98
50394;BME280;36308;46.312;25.288;2022-08-19T09:56:12;95932.38;;;30.49;40.85
50394;BME280;36308;46.312;25.288;2022-08-19T09:58:39;95932.03;;;30.65;40.62
50394;BME280;36308;46.312;25.288;2022-08-19T10:01:06;95928.53;;;30.82;40.85
50394;BME280;36308;46.312;25.288;2022-08-19T10:03:33;95913.91;;;30.96;40.13
50394;BME280;36308;46.312;25.288;2022-08-19T10:06:01;95913.94;;;31.14;39.22
50394;BME280;36308;46.312;25.288;2022-08-19T10:08:36;95923.47;;;31.41;39.00
50394;BME280;36308;46.312;25.288;2022-08-19T10:11:03;95917.56;;;31.61;38.50
50394;BME280;36308;46.312;25.288;2022-08-19T10:13:30;95915.56;;;31.79;37.80
50394;BME280;36308;46.312;25.288;2022-08-19T10:16:07;95912.34;;;31.95;38.16
50394;BME280;36308;46.312;25.288;2022-08-19T10:18:34;95902.81;;;32.07;38.48
50394;BME280;36308;46.312;25.288;2022-08-19T10:21:12;95909.09;;;32.36;37.63
50394;BME280;36308;46.312;25.288;2022-08-19T10:23:40;95898.34;;;32.42;36.12
50394;BME280;36308;46.312;25.288;2022-08-19T10:26:11;95914.56;;;32.69;36.35
50394;BME280;36308;46.312;25.288;2022-08-19T10:28:37;95905.75;;;32.81;35.84
50394;BME280;36308;46.312;25.288;2022-08-19T10:31:11;95905.25;;;32.93;35.90
50394;BME280;36308;46.312;25.288;2022-08-19T10:33:37;95907.56;;;33.13;35.94
50394;BME280;36308;46.312;25.288;2022-08-19T10:36:07;95899.13;;;33.24;35.40
50394;BME280;36308;46.312;25.288;2022-08-19T10:38:33;95896.59;;;33.40;34.74
50394;BME280;36308;46.312;25.288;2022-08-19T10:41:07;95909.53;;;33.68;33.57
50394;BME280;36308;46.312;25.288;2022-08-19T10:43:33;95904.25;;;33.77;33.93
50394;BME280;36308;46.312;25.288;2022-08-19T10:46:02;95910.56;;;33.85;33.06
50394;BME280;36308;46.312;25.288;2022-08-19T10:48:28;95918.75;;;34.03;32.98
50394;BME280;36308;46.312;25.288;2022-08-19T10:50:54;95926.22;;;34.13;32.53
50394;BME280;36308;46.312;25.288;2022-08-19T10:53:40;95917.34;;;34.26;32.03
50394;BME280;36308;46.312;25.288;2022-08-19T10:56:06;95923.53;;;34.40;32.10
50394;BME280;36308;46.312;25.288;2022-08-19T10:58:49;95917.38;;;34.56;31.91
50394;BME280;36308;46.312;25.288;2022-08-19T11:01:15;95906.53;;;34.62;31.63
50394;BME280;36308;46.312;25.288;2022-08-19T11:03:40;95908.69;;;34.81;31.64
50394;BME280;36308;46.312;25.288;2022-08-19T11:06:08;95912.88;;;34.97;31.05
50394;BME280;36308;46.312;25.288;2022-08-19T11:08:35;95897.91;;;35.11;30.08
50394;BME280;36308;46.312;25.288;2022-08-19T11:11:04;95901.75;;;35.24;30.08
50394;BME280;36308;46.312;25.288;2022-08-19T11:13:35;95902.41;;;35.32;30.03
50394;BME280;36308;46.312;25.288;2022-08-19T11:16:23;95884.28;;;35.40;29.92
50394;BME280;36308;46.312;25.288;2022-08-19T11:18:54;95879.81;;;35.46;30.06
50394;BME280;36308;46.312;25.288;2022-08-19T11:21:29;95896.69;;;35.66;30.51
50394;BME280;36308;46.312;25.288;2022-08-19T11:24:00;95886.53;;;35.76;31.22
50394;BME280;36308;46.312;25.288;2022-08-19T11:26:26;95872.97;;;35.74;30.84
50394;BME280;36308;46.312;25.288;2022-08-19T11:28:53;95886.06;;;36.01;30.27
50394;BME280;36308;46.312;25.288;2022-08-19T11:31:25;95890.66;;;36.11;30.03
50394;BME280;36308;46.312;25.288;2022-08-19T11:33:51;95882.88;;;36.22;30.14
50394;BME280;36308;46.312;25.288;2022-08-19T11:36:19;95870.31;;;36.31;30.34
50394;BME280;36308;46.312;25.288;2022-08-19T11:38:48;95869.16;;;36.48;30.65
50394;BME280;36308;46.312;25.288;2022-08-19T11:41:16;95876.72;;;36.71;31.49
50394;BME280;36308;46.312;25.288;2022-08-19T11:43:42;95875.09;;;36.90;30.99
50394;BME280;36308;46.312;25.288;2022-08-19T11:46:14;95877.03;;;37.10;31.29
50394;BME280;36308;46.312;25.288;2022-08-19T11:48:41;95871.66;;;37.19;29.28
50394;BME280;36308;46.312;25.288;2022-08-19T11:51:13;95871.38;;;37.30;28.40
50394;BME280;36308;46.312;25.288;2022-08-19T11:53:39;95872.53;;;37.32;27.40
50394;BME280;36308;46.312;25.288;2022-08-19T11:56:12;95855.34;;;37.30;27.22
50394;BME280;36308;46.312;25.288;2022-08-19T11:58:38;95859.63;;;37.35;28.01
50394;BME280;36308;46.312;25.288;2022-08-19T12:01:12;95864.03;;;37.36;26.91
50394;BME280;36308;46.312;25.288;2022-08-19T12:03:38;95850.44;;;37.34;27.38
50394;BME280;36308;46.312;25.288;2022-08-19T12:06:09;95853.50;;;37.40;26.53
50394;BME280;36308;46.312;25.288;2022-08-19T12:08:35;95841.34;;;37.30;26.62
50394;BME280;36308;46.312;25.288;2022-08-19T12:11:01;95854.09;;;37.31;26.84
50394;BME280;36308;46.312;25.288;2022-08-19T12:13:29;95848.84;;;37.33;26.84
50394;BME280;36308;46.312;25.288;2022-08-19T12:15:55;95856.06;;;37.34;26.90
50394;BME280;36308;46.312;25.288;2022-08-19T12:18:21;95836.94;;;37.29;26.30
50394;BME280;36308;46.312;25.288;2022-08-19T12:20:50;95839.03;;;37.41;26.80
50394;BME280;36308;46.312;25.288;2022-08-19T12:23:16;95834.59;;;37.44;26.52
50394;BME280;36308;46.312;25.288;2022-08-19T12:25:47;95834.38;;;37.51;26.79
50394;BME280;36308;46.312;25.288;2022-08-19T12:28:18;95831.50;;;37.55;26.79
50394;BME280;36308;46.312;25.288;2022-08-19T12:30:44;95826.63;;;37.59;26.53
50394;BME280;36308;46.312;25.288;2022-08-19T12:33:09;95824.25;;;37.57;26.09
50394;BME280;36308;46.312;25.288;2022-08-19T12:35:35;95801.38;;;37.42;25.69
50394;BME280;36308;46.312;25.288;2022-08-19T12:38:00;95831.69;;;37.64;25.87
50394;BME280;36308;46.312;25.288;2022-08-19T12:40:27;95817.66;;;37.64;26.20
50394;BME280;36308;46.312;25.288;2022-08-19T12:42:53;95826.41;;;37.66;26.31
50394;BME280;36308;46.312;25.288;2022-08-19T12:45:19;95816.78;;;37.67;27.36
50394;BME280;36308;46.312;25.288;2022-08-19T12:47:44;95827.63;;;37.81;27.93
50394;BME280;36308;46.312;25.288;2022-08-19T12:50:11;95822.50;;;37.93;26.90
50394;BME280;36308;46.312;25.288;2022-08-19T12:52:37;95800.94;;;37.90;27.41
50394;BME280;36308;46.312;25.288;2022-08-19T12:55:04;95827.53;;;38.14;27.40
50394;BME280;36308;46.312;25.288;2022-08-19T12:57:30;95797.41;;;38.02;26.71
50394;BME280;36308;46.312;25.288;2022-08-19T13:00:08;95825.75;;;38.20;27.21
50394;BME280;36308;46.312;25.288;2022-08-19T13:02:39;95824.66;;;38.31;27.56
50394;BME280;36308;46.312;25.288;2022-08-19T13:05:08;95816.03;;;38.38;26.51